Time;durP1;ratioP1;P1;durP2;ratioP2;P2;SDS_P1;SDS_P2;PMS_P1;PMS_P2;Temp;Humidity;BMP_temperature;BMP_pressure;BME280_temperature;BME280_humidity;BME280_pressure;Samples;Min_cycle;Max_cycle;Signal;HPM_P1;HPM_P2
2021/05/28 00:00:58;;;;;;;10.13;4.57;;;8.60;99.90;;;;;;5088562;28;19920;-57
2021/05/28 00:03:23;;;;;;;8.93;5.55;;;8.60;99.90;;;;;;5094380;28;20491;-52
2021/05/28 00:05:49;;;;;;;;;;;8.50;99.90;;;;;;5095132;28;20036;-56
2021/05/28 00:08:14;;;;;;;11.27;5.72;;;8.50;99.90;;;;;;5095147;28;19930;-56
2021/05/28 00:10:40;;;;;;;;;;;8.50;99.90;;;;;;5087650;28;20040;-53
2021/05/28 00:13:06;;;;;;;12.40;5.70;;;8.50;99.90;;;;;;5097290;28;19998;-52
2021/05/28 00:15:33;;;;;;;;;;;8.40;99.90;;;;;;5092998;28;20044;-56
2021/05/28 00:17:58;;;;;;;15.52;5.32;;;8.50;99.90;;;;;;5085633;28;20370;-55
2021/05/28 00:20:24;;;;;;;;;;;8.50;99.90;;;;;;5076420;28;20040;-52
2021/05/28 00:22:49;;;;;;;13.10;4.97;;;8.40;99.90;;;;;;5087769;28;19988;-54
2021/05/28 00:25:14;;;;;;;;;;;8.50;99.90;;;;;;5091975;28;20044;-56
2021/05/28 00:27:41;;;;;;;17.58;5.18;;;8.50;99.90;;;;;;5069325;28;19927;-53
2021/05/28 00:30:07;;;;;;;13.77;6.72;;;8.50;99.90;;;;;;5070066;28;20037;-53
2021/05/28 00:32:33;;;;;;;16.33;5.07;;;8.50;99.90;;;;;;5070613;28;20040;-57
2021/05/28 00:34:58;;;;;;;;;;;8.40;99.90;;;;;;5071064;28;20036;-52
2021/05/28 00:37:24;;;;;;;20.08;5.53;;;8.50;99.90;;;;;;5071260;28;20450;-54
2021/05/28 00:39:50;;;;;;;;;;;8.50;99.90;;;;;;5070565;28;20036;-54
2021/05/28 00:42:15;;;;;;;9.88;5.25;;;8.40;99.90;;;;;;5069623;28;19959;-55
2021/05/28 00:44:41;;;;;;;;;;;8.40;99.90;;;;;;5070783;28;20403;-53
2021/05/28 00:47:07;;;;;;;16.73;5.28;;;8.40;99.90;;;;;;5070535;28;19935;-56
2021/05/28 00:49:34;;;;;;;13.60;5.53;;;8.40;99.90;;;;;;5069546;28;20055;-56
2021/05/28 00:51:59;;;;;;;20.55;6.78;;;8.50;99.90;;;;;;5069617;28;20048;-52
2021/05/28 00:54:25;;;;;;;;;;;8.40;99.90;;;;;;5070268;28;20121;-52
2021/05/28 00:56:51;;;;;;;7.88;5.15;;;8.40;99.90;;;;;;5074579;28;19989;-55
2021/05/28 00:59:17;;;;;;;23.02;7.50;;;8.40;99.90;;;;;;5089335;28;20582;-53
2021/05/28 01:01:43;;;;;;;13.50;5.68;;;8.40;99.90;;;;;;5088660;28;20051;-55
2021/05/28 01:04:08;;;;;;;;;;;8.40;99.90;;;;;;5090921;28;20039;-54
2021/05/28 01:06:35;;;;;;;7.55;4.93;;;8.40;99.90;;;;;;5090217;28;20399;-53
2021/05/28 01:09:00;;;;;;;7.40;5.43;;;8.40;99.90;;;;;;5074804;28;20045;-56
2021/05/28 01:11:26;;;;;;;;;;;8.40;99.90;;;;;;5068357;28;20037;-56
2021/05/28 01:13:52;;;;;;;15.13;6.05;;;8.40;99.90;;;;;;5069888;28;19999;-58
2021/05/28 01:16:17;;;;;;;;;;;8.40;99.90;;;;;;5069959;28;20040;-53
2021/05/28 01:18:43;;;;;;;17.65;5.88;;;8.40;99.90;;;;;;5069705;28;19917;-56
2021/05/28 01:21:09;;;;;;;;;;;8.40;99.90;;;;;;5069027;28;20400;-53
2021/05/28 01:23:36;;;;;;;21.73;5.55;;;8.40;99.90;;;;;;5069683;28;20299;-54
2021/05/28 01:26:04;;;;;;;13.82;5.60;;;8.40;99.90;;;;;;5069647;28;20040;-57
2021/05/28 01:28:29;;;;;;;17.17;5.70;;;8.40;99.90;;;;;;5068956;28;20154;-55
2021/05/28 01:30:55;;;;;;;;;;;8.30;99.90;;;;;;5068205;28;20132;-58
2021/05/28 01:33:21;;;;;;;17.10;7.10;;;8.30;99.90;;;;;;5069373;28;20269;-57
2021/05/28 01:35:46;;;;;;;;;;;8.30;99.90;;;;;;5069919;28;20123;-57
2021/05/28 01:38:12;;;;;;;20.30;6.40;;;8.30;99.90;;;;;;5069494;28;20392;-53
2021/05/28 01:40:37;;;;;;;;;;;8.30;99.90;;;;;;5068830;28;20380;-54
2021/05/28 01:43:03;;;;;;;12.73;6.38;;;8.30;99.90;;;;;;5069616;28;19920;-56
2021/05/28 01:45:28;;;;;;;;;;;8.30;99.90;;;;;;5069344;28;20037;-54
2021/05/28 01:47:54;;;;;;;11.07;5.90;;;8.30;99.90;;;;;;5066420;28;20399;-56
2021/05/28 01:50:20;;;;;;;;;;;8.30;99.90;;;;;;5067416;28;20105;-57
2021/05/28 01:52:46;;;;;;;12.95;6.10;;;8.30;99.90;;;;;;5069027;28;19984;-53
2021/05/28 01:55:12;;;;;;;;;;;8.30;99.90;;;;;;5070091;28;20059;-55
2021/05/28 01:57:38;;;;;;;13.75;6.22;;;8.30;99.90;;;;;;5069135;28;19920;-55
2021/05/28 02:00:05;;;;;;;;;;;8.40;99.90;;;;;;5067393;28;20113;-54
2021/05/28 02:02:30;;;;;;;15.77;5.65;;;8.40;99.90;;;;;;5068160;28;20006;-54
2021/05/28 02:04:56;;;;;;;;;;;8.30;99.90;;;;;;5070086;28;20131;-54
2021/05/28 02:07:21;;;;;;;12.07;6.32;;;8.40;99.90;;;;;;5071108;28;19931;-52
2021/05/28 02:09:47;;;;;;;;;;;8.30;99.90;;;;;;5089076;28;20518;-55
2021/05/28 02:12:12;;;;;;;26.95;7.10;;;8.40;99.90;;;;;;5088602;28;19920;-50
2021/05/28 02:14:38;;;;;;;;;;;8.40;99.90;;;;;;5088917;28;20036;-57
2021/05/28 02:17:03;;;;;;;12.57;5.78;;;8.40;99.90;;;;;;5088865;28;20328;-57
2021/05/28 02:19:29;;;;;;;;;;;8.30;99.90;;;;;;5078914;28;20618;-54
2021/05/28 02:21:54;;;;;;;23.00;7.03;;;8.30;99.90;;;;;;5068194;28;19920;-55
2021/05/28 02:24:22;;;;;;;;;;;8.40;99.90;;;;;;5069586;28;20439;-54
2021/05/28 02:26:48;;;;;;;;;;;8.30;99.90;;;;;;5065317;28;20295;-57
2021/05/28 02:29:14;;;;;;;14.02;7.55;;;8.30;99.90;;;;;;5068213;28;19916;-54
2021/05/28 02:31:41;;;;;;;16.92;6.70;;;8.30;99.90;;;;;;5067585;28;20036;-58
2021/05/28 02:34:07;;;;;;;15.20;7.65;;;8.30;99.90;;;;;;5068495;28;20133;-59
2021/05/28 02:36:32;;;;;;;;;;;8.30;99.90;;;;;;5068930;28;20127;-53
2021/05/28 02:38:58;;;;;;;10.15;6.07;;;8.30;99.90;;;;;;5068371;28;19927;-55
2021/05/28 02:41:24;;;;;;;;;;;8.30;99.90;;;;;;5067372;28;20037;-53
2021/05/28 02:43:49;;;;;;;36.45;9.77;;;8.20;99.90;;;;;;5068069;28;19923;-55
2021/05/28 02:46:15;;;;;;;;;;;8.30;99.90;;;;;;5068329;28;20052;-56
2021/05/28 02:48:41;;;;;;;33.10;8.32;;;8.30;99.90;;;;;;5067846;28;19961;-54
2021/05/28 02:51:06;;;;;;;;;;;8.30;99.90;;;;;;5067426;28;20078;-55
2021/05/28 02:53:34;;;;;;;13.77;7.45;;;8.20;99.90;;;;;;5067915;28;19916;-55
2021/05/28 02:56:02;;;;;;;17.75;7.43;;;8.30;99.90;;;;;;5068312;28;20078;-56
2021/05/28 02:58:28;;;;;;;14.23;7.05;;;8.30;99.90;;;;;;5086181;28;20054;-58
2021/05/28 03:00:53;;;;;;;;;;;8.30;99.90;;;;;;5086907;28;20035;-57
2021/05/28 03:03:19;;;;;;;13.27;7.45;;;8.30;99.90;;;;;;5088463;28;19920;-57
2021/05/28 03:05:44;;;;;;;;;;;8.20;99.90;;;;;;5089169;28;20040;-57
2021/05/28 03:08:10;;;;;;;11.75;6.82;;;8.30;99.90;;;;;;5080120;28;19920;-55
2021/05/28 03:10:35;;;;;;;;;;;8.20;99.90;;;;;;5067214;28;20040;-57
2021/05/28 03:13:01;;;;;;;22.70;9.20;;;8.30;99.90;;;;;;5068029;28;19966;-57
2021/05/28 03:15:26;;;;;;;;;;;8.20;99.90;;;;;;5068390;28;20098;-56
2021/05/28 03:17:53;;;;;;;14.68;6.97;;;8.20;99.90;;;;;;5068335;28;19917;-56
2021/05/28 03:20:25;;;;;;;16.30;7.53;;;8.20;99.90;;;;;;5065682;28;20071;-54
2021/05/28 03:22:50;;;;;;;15.13;7.88;;;8.20;99.90;;;;;;5068696;28;20041;-56
2021/05/28 03:25:16;;;;;;;;;;;8.20;99.90;;;;;;5068178;28;20098;-52
2021/05/28 03:27:44;;;;;;;16.80;7.38;;;8.20;99.90;;;;;;5067501;28;19916;-54
2021/05/28 03:30:11;;;;;;;12.02;7.00;;;8.20;99.90;;;;;;5066915;28;20100;-55
2021/05/28 03:32:37;;;;;;;14.85;7.65;;;8.20;99.90;;;;;;5067711;28;20040;-52
2021/05/28 03:35:03;;;;;;;;;;;8.20;99.90;;;;;;5068182;28;20040;-55
2021/05/28 03:37:28;;;;;;;11.00;7.40;;;8.20;99.90;;;;;;5068014;28;19978;-55
2021/05/28 03:39:54;;;;;;;;;;;8.20;99.90;;;;;;5064466;28;20048;-55
2021/05/28 03:42:20;;;;;;;15.70;6.95;;;8.20;99.90;;;;;;5067387;28;19989;-57
2021/05/28 03:44:46;;;;;;;17.63;8.00;;;8.10;99.90;;;;;;5066507;28;20053;-59
2021/05/28 03:47:12;;;;;;;16.25;7.93;;;8.20;99.90;;;;;;5068180;28;20052;-52
2021/05/28 03:49:39;;;;;;;;;;;8.20;99.90;;;;;;5068042;28;20040;-54
2021/05/28 03:52:05;;;;;;;;;;;8.20;99.90;;;;;;5067541;28;20014;-57
2021/05/28 03:54:31;;;;;;;20.40;8.75;;;8.20;99.90;;;;;;5072253;28;20063;-58
2021/05/28 03:56:57;;;;;;;10.13;6.93;;;8.20;99.90;;;;;;5077473;28;20114;-57
2021/05/28 03:59:22;;;;;;;;;;;8.20;99.90;;;;;;5092114;28;20617;-56
2021/05/28 04:01:48;;;;;;;14.90;7.03;;;8.20;99.90;;;;;;5090465;28;19919;-57
2021/05/28 04:04:14;;;;;;;14.60;7.70;;;8.20;99.90;;;;;;5092270;28;20048;-56
2021/05/28 04:06:39;;;;;;;;;;;8.20;99.90;;;;;;5092077;28;20082;-57
2021/05/28 04:09:05;;;;;;;13.02;7.38;;;8.20;99.90;;;;;;5074292;28;19924;-57
2021/05/28 04:11:30;;;;;;;;;;;8.20;99.90;;;;;;5070801;28;20045;-56
2021/05/28 04:13:56;;;;;;;14.05;6.95;;;8.30;99.90;;;;;;5071302;28;20395;-55
2021/05/28 04:16:21;;;;;;;;;;;8.30;99.90;;;;;;5071106;28;20500;-57
2021/05/28 04:18:47;;;;;;;10.00;6.35;;;8.30;99.90;;;;;;5070788;28;19916;-58
2021/05/28 04:21:12;;;;;;;10.85;7.07;;;8.40;99.90;;;;;;5070783;28;20452;-57
2021/05/28 04:23:38;;;;;;;;;;;8.40;99.90;;;;;;5068550;28;20060;-57
2021/05/28 04:26:03;;;;;;;15.70;6.78;;;8.50;99.90;;;;;;5071991;28;19924;-59
2021/05/28 04:28:29;;;;;;;;;;;8.60;99.90;;;;;;5071751;28;20071;-58
2021/05/28 04:30:56;;;;;;;14.65;5.63;;;8.60;99.90;;;;;;5069259;28;20015;-58
2021/05/28 04:33:23;;;;;;;18.30;6.65;;;8.60;99.90;;;;;;5071006;28;20416;-58
2021/05/28 04:35:48;;;;;;;30.20;7.72;;;8.60;99.90;;;;;;5070703;28;20663;-56
2021/05/28 04:38:14;;;;;;;;;;;8.70;99.90;;;;;;5071632;28;20044;-55
2021/05/28 04:40:39;;;;;;;10.05;5.65;;;8.70;99.90;;;;;;5069989;28;19916;-55
2021/05/28 04:43:05;;;;;;;;;;;8.60;99.90;;;;;;5070590;28;20047;-57
2021/05/28 04:45:30;;;;;;;10.32;5.47;;;8.60;99.90;;;;;;5069381;28;19962;-55
2021/05/28 04:47:56;;;;;;;;;;;8.70;99.90;;;;;;5071375;28;20040;-55
2021/05/28 04:50:30;;;;;;;10.68;6.10;;;8.60;99.90;;;;;;5069633;28;20003;-57
2021/05/28 04:52:59;;;;;;;12.75;6.28;;;8.70;99.90;;;;;;5070593;28;20373;-55
2021/05/28 04:55:25;;;;;;;11.77;6.38;;;8.70;99.90;;;;;;5070204;28;20048;-57
2021/05/28 04:57:51;;;;;;;14.63;6.53;;;8.60;99.90;;;;;;5083328;28;20040;-57
2021/05/28 05:00:17;;;;;;;;;;;8.60;99.90;;;;;;5088810;28;20498;-58
2021/05/28 05:02:43;;;;;;;10.55;6.88;;;8.60;99.90;;;;;;5090214;28;19920;-56
2021/05/28 05:05:08;;;;;;;;;;;8.60;99.90;;;;;;5091279;28;20036;-55
2021/05/28 05:07:34;;;;;;;11.18;6.28;;;8.60;99.90;;;;;;5086877;28;19962;-56
2021/05/28 05:09:59;;;;;;;;;;;8.70;99.90;;;;;;5069568;28;20447;-58
2021/05/28 05:12:25;;;;;;;10.70;6.47;;;8.70;99.90;;;;;;5069882;28;19920;-56
2021/05/28 05:14:50;;;;;;;;;;;8.80;99.90;;;;;;5070335;28;20028;-57
2021/05/28 05:17:16;;;;;;;15.73;6.53;;;8.70;99.90;;;;;;5070752;28;20015;-56
2021/05/28 05:19:41;;;;;;;;;;;8.70;99.90;;;;;;5069469;28;20599;-56
2021/05/28 05:22:07;;;;;;;12.45;7.07;;;8.70;99.90;;;;;;5070355;28;19952;-56
2021/05/28 05:24:32;;;;;;;;;;;8.70;99.90;;;;;;5070488;28;20036;-58
2021/05/28 05:26:58;;;;;;;13.35;6.13;;;8.60;99.90;;;;;;5069465;28;19971;-56
2021/05/28 05:29:24;;;;;;;10.05;6.10;;;8.60;99.90;;;;;;5069439;28;20037;-55
2021/05/28 05:31:49;;;;;;;;;;;8.60;99.90;;;;;;5069155;28;20048;-58
2021/05/28 05:34:15;;;;;;;9.32;6.03;;;8.70;99.90;;;;;;5069906;28;19920;-55
2021/05/28 05:36:40;;;;;;;;;;;8.60;99.90;;;;;;5069907;28;20454;-59
2021/05/28 05:39:07;;;;;;;10.60;6.07;;;8.60;99.90;;;;;;5062652;28;20265;-56
2021/05/28 05:41:32;;;;;;;16.38;7.13;;;8.60;99.90;;;;;;5068585;28;20044;-57
2021/05/28 05:43:58;;;;;;;;;;;8.70;99.90;;;;;;5069582;28;20090;-55
2021/05/28 05:46:23;;;;;;;12.63;6.22;;;8.70;99.90;;;;;;5069023;28;19974;-52
2021/05/28 05:48:49;;;;;;;;;;;8.70;99.90;;;;;;5068075;28;20118;-55
2021/05/28 05:51:15;;;;;;;10.70;6.45;;;8.70;99.90;;;;;;5068949;28;20418;-57
2021/05/28 05:53:40;;;;;;;;;;;8.80;99.90;;;;;;5069047;28;20041;-56
2021/05/28 05:56:06;;;;;;;16.35;5.93;;;8.80;99.90;;;;;;5069607;28;19959;-53
2021/05/28 05:58:31;;;;;;;;;;;9.00;99.90;;;;;;5088173;28;20074;-55
2021/05/28 06:00:57;;;;;;;15.75;7.30;;;9.10;99.90;;;;;;5085314;28;20299;-54
2021/05/28 06:03:22;;;;;;;;;;;9.10;99.90;;;;;;5088340;28;20040;-56
2021/05/28 06:05:48;;;;;;;11.05;6.90;;;9.30;99.90;;;;;;5088960;28;20391;-52
2021/05/28 06:08:13;;;;;;;;;;;9.60;99.90;;;;;;5081254;28;20039;-56
2021/05/28 06:10:39;;;;;;;10.82;5.15;;;9.80;99.90;;;;;;5067391;28;19917;-58
2021/05/28 06:13:05;;;;;;;;;;;10.20;99.90;;;;;;5077137;28;20108;-58
2021/05/28 06:15:32;;;;;;;8.80;5.50;;;10.30;99.90;;;;;;5072930;28;19916;-57
2021/05/28 06:17:58;;;;;;;10.00;4.82;;;10.60;99.90;;;;;;5076615;28;20270;-57
2021/05/28 06:20:24;;;;;;;;;;;11.10;99.90;;;;;;5070980;28;20043;-57
2021/05/28 06:22:49;;;;;;;8.27;3.95;;;12.40;99.90;;;;;;5077278;28;19999;-53
2021/05/28 06:25:15;;;;;;;;;;;12.70;99.90;;;;;;5064578;22;21007;-80
2021/05/28 06:27:41;;;;;;;9.07;3.90;;;13.50;99.90;;;;;;5067885;28;20615;-80
2021/05/28 06:30:09;;;;;;;9.10;3.55;;;13.70;98.90;;;;;;5052743;28;20039;-81
2021/05/28 06:32:35;;;;;;;5.60;3.85;;;13.30;99.90;;;;;;5051295;28;20120;-80
2021/05/28 06:35:01;;;;;;;8.98;4.07;;;13.20;99.90;;;;;;5053700;28;20040;-83
2021/05/28 06:37:27;;;;;;;14.23;4.00;;;13.00;99.90;;;;;;5053269;28;20044;-80
2021/05/28 06:39:52;;;;;;;;;;;13.00;99.90;;;;;;5053700;28;20033;-82
2021/05/28 06:42:19;;;;;;;11.70;3.88;;;13.10;99.90;;;;;;5053651;28;20659;-81
2021/05/28 06:44:46;;;;;;;7.95;4.60;;;13.20;99.90;;;;;;5054635;28;20033;-83
2021/05/28 06:47:11;;;;;;;;;;;13.50;99.90;;;;;;5053054;28;20097;-81
2021/05/28 06:49:37;;;;;;;12.98;3.30;;;14.20;99.00;;;;;;5045861;28;19923;-83
2021/05/28 06:52:03;;;;;;;6.18;3.28;;;14.80;99.50;;;;;;5034955;28;20044;-80
2021/05/28 06:54:31;;;;;;;8.55;3.10;;;14.30;96.80;;;;;;5033743;28;20071;-82
2021/05/28 06:56:56;;;;;;;7.63;3.10;;;14.10;99.60;;;;;;5043823;28;20044;-79
2021/05/28 06:59:22;;;;;;;;;;;13.70;98.40;;;;;;5053807;28;20675;-82
2021/05/28 07:01:48;;;;;;;6.13;3.03;;;13.60;97.00;;;;;;5053103;28;19916;-83
2021/05/28 07:04:13;;;;;;;5.30;2.90;;;14.10;95.50;;;;;;5053099;28;20047;-82
2021/05/28 07:06:39;;;;;;;4.97;2.80;;;13.80;97.70;;;;;;5053185;28;20102;-79
2021/05/28 07:09:06;;;;;;;;;;;14.30;95.70;;;;;;5059602;28;20044;-81
2021/05/28 07:11:32;;;;;;;7.85;3.40;;;14.30;94.10;;;;;;5033223;28;19920;-82
2021/05/28 07:13:58;;;;;;;;;;;14.00;96.00;;;;;;5033482;28;20067;-84
2021/05/28 07:16:23;;;;;;;3.53;2.80;;;14.10;95.90;;;;;;5032634;28;19917;-78
2021/05/28 07:18:49;;;;;;;;;;;13.70;96.40;;;;;;5034113;28;20103;-81
2021/05/28 07:21:15;;;;;;;6.82;3.67;;;13.50;99.60;;;;;;5032744;28;19974;-82
2021/05/28 07:23:41;;;;;;;;;;;13.60;98.60;;;;;;5033711;28;20258;-81
2021/05/28 07:26:06;;;;;;;7.65;3.65;;;13.30;97.80;;;;;;5032970;28;19928;-75
2021/05/28 07:28:32;;;;;;;;;;;13.20;99.90;;;;;;5059100;28;20028;-76
2021/05/28 07:30:59;;;;;;;10.70;3.40;;;13.00;97.20;;;;;;5073392;28;20254;-75
2021/05/28 07:33:26;;;;;;;5.70;3.83;;;12.90;99.30;;;;;;5040891;28;20064;-84
2021/05/28 07:35:53;;;;;;;5.38;2.83;;;14.00;98.50;;;;;;5036750;28;20083;-81
2021/05/28 07:38:18;;;;;;;7.45;3.03;;;14.90;95.00;;;;;;5054716;28;20125;-81
2021/05/28 07:40:44;;;;;;;;;;;14.60;95.60;;;;;;5037168;28;20123;-82
2021/05/28 07:43:10;;;;;;;7.70;3.10;;;14.50;96.30;;;;;;5036841;28;19999;-82
2021/05/28 07:45:37;;;;;;;;;;;14.00;95.40;;;;;;5057976;28;20048;-83
2021/05/28 07:48:03;;;;;;;;;;;13.40;97.60;;;;;;5037613;28;19917;-83
2021/05/28 07:50:44;;;;;;;8.23;3.55;;;13.20;99.10;;;;;;5037398;28;20571;-86
2021/05/28 07:53:15;;;;;;;13.10;3.28;;;13.20;98.70;;;;;;5033775;28;20037;-84
2021/05/28 07:55:41;;;;;;;11.13;3.92;;;13.10;98.60;;;;;;5033369;28;20127;-82
2021/05/28 07:58:06;;;;;;;;;;;13.10;99.00;;;;;;5051461;28;20120;-85
2021/05/28 08:00:33;;;;;;;18.63;3.10;;;14.60;96.80;;;;;;5056672;28;19916;-84
2021/05/28 08:03:01;;;;;;;5.20;2.47;;;16.80;94.10;;;;;;5056931;28;20040;-82
2021/05/28 08:05:27;;;;;;;3.85;2.65;;;18.60;88.60;;;;;;5056689;28;20067;-82
2021/05/28 08:07:55;;;;;;;6.88;2.95;;;19.50;79.20;;;;;;5056178;28;20036;-85
2021/05/28 08:10:20;;;;;;;6.07;2.83;;;20.10;82.30;;;;;;5056644;28;20043;-84
2021/05/28 08:12:47;;;;;;;5.22;2.92;;;19.40;77.30;;;;;;5054523;28;20036;-82
2021/05/28 08:15:13;;;;;;;5.60;2.83;;;19.00;81.80;;;;;;5036672;28;20473;-83
2021/05/28 08:17:39;;;;;;;10.57;3.42;;;18.70;81.40;;;;;;5035930;28;20112;-86
2021/05/28 08:20:05;;;;;;;6.70;3.22;;;19.20;82.40;;;;;;5038048;28;20037;-83
2021/05/28 08:22:31;;;;;;;3.08;2.20;;;20.30;71.10;;;;;;5037088;28;20044;-80
2021/05/28 08:24:57;;;;;;;5.07;2.95;;;20.60;66.90;;;;;;5036835;28;20048;-80
2021/05/28 08:27:23;;;;;;;5.15;2.50;;;20.30;66.00;;;;;;5036271;28;20041;-77
2021/05/28 08:29:48;;;;;;;4.13;2.53;;;20.90;70.70;;;;;;5054673;28;20040;-80
2021/05/28 08:32:15;;;;;;;5.97;2.70;;;21.00;65.20;;;;;;5035619;28;20083;-82
2021/05/28 08:34:41;;;;;;;7.60;2.58;;;19.80;64.70;;;;;;5036067;28;20095;-81
2021/05/28 08:37:07;;;;;;;6.32;2.20;;;19.50;75.30;;;;;;5035711;28;20041;-81
2021/05/28 08:39:33;;;;;;;4.35;1.90;;;19.60;66.40;;;;;;5036070;28;20037;-80
2021/05/28 08:41:59;;;;;;;7.28;2.40;;;20.40;63.20;;;;;;5035850;28;20044;-82
2021/05/28 08:44:26;;;;;;;4.43;2.15;;;21.10;60.30;;;;;;5035691;28;20052;-78
2021/05/28 08:46:52;;;;;;;3.85;2.35;;;21.20;57.40;;;;;;5052844;28;20045;-80
2021/05/28 08:49:20;;;;;;;4.93;2.65;;;21.10;59.90;;;;;;5036074;28;20033;-83
2021/05/28 08:51:46;;;;;;;5.72;3.20;;;21.80;57.70;;;;;;5035558;28;20055;-81
2021/05/28 08:54:12;;;;;;;6.53;3.35;;;21.10;58.50;;;;;;5035140;28;20097;-81
2021/05/28 08:56:38;;;;;;;5.90;3.40;;;20.00;65.10;;;;;;5035469;28;20049;-80
2021/05/28 08:59:05;;;;;;;5.90;2.80;;;18.90;65.00;;;;;;5035781;28;20044;-79
2021/05/28 09:01:31;;;;;;;10.20;3.92;;;18.40;73.70;;;;;;5035501;28;20041;-79
2021/05/28 09:04:03;;;;;;;11.00;6.53;;;17.50;76.50;;;;;;5035086;28;20094;-82
2021/05/28 09:06:43;;;;;;;7.32;3.30;;;16.50;78.30;;;;;;5064585;28;20055;-78
2021/05/28 09:09:20;;;;;;;6.65;3.30;;;16.10;81.70;;;;;;5042699;28;20037;-80
2021/05/28 09:12:00;;;;;;;5.38;3.03;;;15.70;84.60;;;;;;5034809;28;20041;-81
2021/05/28 09:14:35;;;;;;;16.73;3.97;;;15.40;87.40;;;;;;5035333;28;20485;-82
2021/05/28 09:17:05;;;;;;;7.63;3.95;;;15.20;88.00;;;;;;5034645;28;20059;-81
2021/05/28 09:19:34;;;;;;;9.77;3.35;;;15.00;90.90;;;;;;5034919;28;20037;-83
2021/05/28 09:22:08;;;;;;;6.82;3.33;;;15.10;90.50;;;;;;5034837;28;20048;-83
2021/05/28 09:24:44;;;;;;;9.02;3.65;;;15.10;88.00;;;;;;5035320;28;20048;-84
2021/05/28 09:27:28;;;;;;;9.43;3.50;;;14.90;88.80;;;;;;5033880;28;20053;-82
2021/05/28 09:30:07;;;;;;;6.13;2.97;;;15.00;91.40;;;;;;5033564;28;20048;-82
2021/05/28 09:32:35;;;;;;;13.35;3.95;;;14.80;85.10;;;;;;5034258;28;20095;-84
2021/05/28 09:35:03;;;;;;;5.15;3.03;;;15.10;90.20;;;;;;5033160;28;20124;-83
2021/05/28 09:37:47;;;;;;;5.63;2.95;;;15.10;86.80;;;;;;5034198;28;20091;-83
2021/05/28 09:40:20;;;;;;;6.78;3.08;;;15.20;84.80;;;;;;5027704;28;20115;-83
2021/05/28 09:42:59;;;;;;;4.45;2.75;;;15.10;83.60;;;;;;5052134;28;20143;-82
2021/05/28 09:45:32;;;;;;;6.40;3.50;;;14.90;84.30;;;;;;5033723;28;20037;-83
2021/05/28 09:48:01;;;;;;;4.43;2.15;;;14.90;87.10;;;;;;5046190;28;20045;-82
2021/05/28 09:50:33;;;;;;;4.25;2.45;;;15.30;79.60;;;;;;5054683;28;20048;-81
2021/05/28 09:53:03;;;;;;;9.00;3.42;;;14.70;77.40;;;;;;5034381;28;20076;-82
2021/05/28 09:55:31;;;;;;;5.72;2.85;;;14.70;85.10;;;;;;5034137;28;20049;-83
2021/05/28 09:57:57;;;;;;;5.93;2.88;;;15.00;83.90;;;;;;5044586;28;20485;-82
2021/05/28 10:00:31;;;;;;;7.70;2.65;;;14.80;84.50;;;;;;5034218;28;20037;-81
2021/05/28 10:03:12;;;;;;;6.97;2.95;;;15.10;91.00;;;;;;5039473;28;20041;-82
2021/05/28 10:05:39;;;;;;;6.40;2.88;;;15.00;85.10;;;;;;5022189;28;20042;-83
2021/05/28 10:08:10;;;;;;;6.13;3.35;;;15.20;87.90;;;;;;5034312;28;20098;-82
2021/05/28 10:10:39;;;;;;;77.07;13.02;;;14.60;90.80;;;;;;5033661;28;20048;-82
2021/05/28 10:13:12;;;;;;;5.60;3.80;;;14.70;87.30;;;;;;5033973;28;20044;-83
2021/05/28 10:15:44;;;;;;;10.60;3.58;;;14.40;83.00;;;;;;5033340;28;20048;-83
2021/05/28 10:18:11;;;;;;;11.98;3.40;;;14.50;87.50;;;;;;5051532;28;20036;-83
2021/05/28 10:20:38;;;;;;;9.18;2.85;;;14.50;87.80;;;;;;5034825;28;20037;-83
2021/05/28 10:23:06;;;;;;;10.57;3.20;;;14.40;88.60;;;;;;5033399;28;20037;-83
2021/05/28 10:25:33;;;;;;;6.43;3.45;;;14.60;88.40;;;;;;5032621;28;20457;-84
2021/05/28 10:28:01;;;;;;;4.88;3.20;;;14.80;85.50;;;;;;5033187;28;20047;-83
2021/05/28 10:30:41;;;;;;;6.80;3.60;;;14.70;85.50;;;;;;5032889;28;20041;-82
2021/05/28 10:33:24;;;;;;;5.82;2.95;;;14.90;90.40;;;;;;5033165;28;20044;-85
2021/05/28 10:35:59;;;;;;;5.65;2.40;;;15.00;80.20;;;;;;5051032;28;20049;-81
2021/05/28 10:38:34;;;;;;;8.55;2.67;;;15.10;78.20;;;;;;5032869;28;20052;-83
2021/05/28 10:41:00;;;;;;;5.70;3.17;;;15.30;80.50;;;;;;5032736;28;20044;-82
2021/05/28 10:43:27;;;;;;;;;;;15.40;78.20;;;;;;5049931;28;20112;-82
2021/05/28 10:46:02;;;;;;;25.25;6.80;;;15.00;83.30;;;;;;5032403;28;19950;-80
2021/05/28 10:48:37;;;;;;;10.70;3.60;;;15.00;84.30;;;;;;5032501;28;20091;-78
2021/05/28 10:51:07;;;;;;;8.75;4.28;;;14.60;87.40;;;;;;5045646;28;20112;-73
2021/05/28 10:53:33;;;;;;;11.13;2.70;;;14.40;87.20;;;;;;5012768;28;20045;-82
2021/05/28 10:56:14;;;;;;;10.00;2.10;;;14.80;87.70;;;;;;5012964;28;20545;-78
2021/05/28 10:58:52;;;;;;;4.05;1.83;;;15.10;78.40;;;;;;5051158;28;20041;-76
2021/05/28 11:01:44;;;;;;;4.50;2.35;;;15.20;78.10;;;;;;5051138;28;20028;-80
2021/05/28 11:04:12;;;;;;;3.30;1.95;;;15.30;71.60;;;;;;5052740;28;20037;-77
2021/05/28 11:06:59;;;;;;;3.25;2.00;;;15.50;74.40;;;;;;5052468;28;20044;-73
2021/05/28 11:09:43;;;;;;;2.97;2.03;;;15.80;76.20;;;;;;5034312;28;20485;-73
2021/05/28 11:12:16;;;;;;;7.03;2.60;;;15.80;68.40;;;;;;5012820;28;20037;-73
2021/05/28 11:15:10;;;;;;;13.82;2.85;;;15.70;77.40;;;;;;5012685;28;20127;-76
2021/05/28 11:17:56;;;;;;;5.80;2.15;;;15.50;82.30;;;;;;5012541;28;20053;-76
2021/05/28 11:20:33;;;;;;;2.30;1.70;;;15.40;77.40;;;;;;5028601;28;20183;-76
2021/05/28 11:23:08;;;;;;;4.50;1.65;;;15.40;77.20;;;;;;5032965;28;20037;-78
2021/05/28 11:25:49;;;;;;;3.65;2.72;;;15.20;68.70;;;;;;5050995;28;20509;-78
2021/05/28 11:28:15;;;;;;;3.13;2.00;;;15.30;73.60;;;;;;5051287;28;20053;-77
2021/05/28 11:30:51;;;;;;;4.07;2.72;;;15.50;77.20;;;;;;5033307;28;20561;-78
2021/05/28 11:33:32;;;;;;;7.82;3.90;;;15.30;74.20;;;;;;5051493;28;20056;-77
2021/05/28 11:35:59;;;;;;;11.00;3.78;;;15.00;76.40;;;;;;5033408;28;20073;-76
2021/05/28 11:38:33;;;;;;;4.07;2.25;;;14.90;82.60;;;;;;5051618;28;20116;-77
2021/05/28 11:40:59;;;;;;;3.05;1.50;;;15.10;76.90;;;;;;5033212;28;20123;-78
2021/05/28 11:43:25;;;;;;;;;;;15.30;74.70;;;;;;5033480;28;20055;-77
2021/05/28 11:45:53;;;;;;;;;;;15.20;66.10;;;;;;5051812;28;20015;-75
2021/05/28 11:48:22;;;;;;;3.38;1.80;;;15.10;71.40;;;;;;5051140;28;20043;-77
2021/05/28 11:50:54;;;;;;;5.32;1.70;;;15.20;72.20;;;;;;5032070;28;20127;-77
2021/05/28 11:53:21;;;;;;;6.43;2.00;;;14.80;69.90;;;;;;5033194;28;20041;-75
2021/05/28 11:55:50;;;;;;;2.97;2.20;;;14.80;75.30;;;;;;5027303;28;20115;-76
2021/05/28 11:58:17;;;;;;;4.28;2.10;;;14.80;81.70;;;;;;5060617;28;20037;-78
2021/05/28 12:00:44;;;;;;;2.03;1.60;;;15.10;75.00;;;;;;5032153;28;20045;-75
2021/05/28 12:03:11;;;;;;;6.63;2.00;;;15.10;76.70;;;;;;5033269;28;20107;-75
2021/05/28 12:05:39;;;;;;;5.90;2.05;;;15.10;78.20;;;;;;5032475;28;20171;-78
2021/05/28 12:08:11;;;;;;;12.77;2.60;;;14.90;80.40;;;;;;5032355;28;20055;-77
2021/05/28 12:10:42;;;;;;;6.40;2.00;;;14.80;77.00;;;;;;5049158;28;20510;-76
2021/05/28 12:13:09;;;;;;;3.67;1.90;;;14.90;77.40;;;;;;5050707;28;20036;-77
2021/05/28 12:15:43;;;;;;;3.83;2.10;;;15.20;75.30;;;;;;5035412;28;20064;-78
2021/05/28 12:18:28;;;;;;;3.22;1.80;;;15.10;77.70;;;;;;5036432;28;20541;-77
2021/05/28 12:21:13;;;;;;;3.20;1.60;;;15.50;78.10;;;;;;5035210;28;20041;-78
2021/05/28 12:23:42;;;;;;;3.83;1.42;;;15.20;73.80;;;;;;5036192;28;20040;-79
2021/05/28 12:26:11;;;;;;;1.40;1.20;;;15.20;73.80;;;;;;5036134;28;20053;-78
2021/05/28 12:28:41;;;;;;;4.50;1.95;;;15.20;68.50;;;;;;5036226;28;20123;-77
2021/05/28 12:31:14;;;;;;;5.93;2.20;;;15.10;69.10;;;;;;5035178;28;20037;-78
2021/05/28 12:34:05;;;;;;;5.88;1.30;;;15.30;76.80;;;;;;5036303;28;20127;-78
2021/05/28 12:36:34;;;;;;;3.35;1.50;;;15.30;73.90;;;;;;5035820;28;20393;-78
2021/05/28 12:39:04;;;;;;;4.50;2.22;;;15.00;71.70;;;;;;5035514;28;20080;-77
2021/05/28 12:41:32;;;;;;;2.78;1.55;;;14.60;73.50;;;;;;5053953;28;20673;-76
2021/05/28 12:44:00;;;;;;;1.90;1.60;;;14.70;75.50;;;;;;5052449;28;20167;-77
2021/05/28 12:46:34;;;;;;;3.25;1.13;;;15.00;79.30;;;;;;5034217;28;20040;-76
2021/05/28 12:49:10;;;;;;;3.97;1.38;;;14.70;72.60;;;;;;5051593;28;20498;-76
2021/05/28 12:51:40;;;;;;;4.10;1.45;;;14.60;73.10;;;;;;5032455;28;20049;-77
2021/05/28 12:54:18;;;;;;;4.50;1.60;;;14.60;76.40;;;;;;5032646;28;20108;-78
2021/05/28 12:56:44;;;;;;;2.33;1.38;;;14.70;74.30;;;;;;5033872;28;20053;-76
2021/05/28 12:59:39;;;;;;;3.80;1.70;;;15.00;79.60;;;;;;5036104;28;20087;-76
2021/05/28 13:02:35;;;;;;;6.22;1.83;;;14.90;76.60;;;;;;5032980;28;20094;-77
2021/05/28 13:05:11;;;;;;;3.50;1.85;;;14.90;79.70;;;;;;5035244;28;20053;-78
2021/05/28 13:07:44;;;;;;;3.63;1.30;;;14.90;75.10;;;;;;5039759;28;20115;-77
2021/05/28 13:10:24;;;;;;;2.03;1.15;;;14.70;73.80;;;;;;5056072;28;20036;-77
2021/05/28 13:12:51;;;;;;;16.13;2.08;;;14.60;75.20;;;;;;5056728;28;20093;-78
2021/05/28 13:15:29;;;;;;;1.85;1.20;;;14.80;71.80;;;;;;5055577;28;20115;-79